sensor_id;sensor_type;location;lat;lon;timestamp;pressure;altitude;pressure_sealevel;temperature;humidity
22018;BME280;11173;51.050;7.108;2022-08-02T00:01:15;99808.72;;;15.34;65.59
22018;BME280;11173;51.050;7.108;2022-08-02T00:06:16;99810.53;;;15.27;67.38
22018;BME280;11173;51.050;7.108;2022-08-02T00:11:16;99817.47;;;15.23;67.34
22018;BME280;11173;51.050;7.108;2022-08-02T00:16:17;99811.19;;;15.19;66.83
22018;BME280;11173;51.050;7.108;2022-08-02T00:21:19;99808.16;;;15.13;66.97
22018;BME280;11173;51.050;7.108;2022-08-02T00:26:20;99806.94;;;15.01;67.08
22018;BME280;11173;51.050;7.108;2022-08-02T00:31:20;99818.25;;;14.98;68.04
22018;BME280;11173;51.050;7.108;2022-08-02T00:36:21;99824.06;;;14.90;69.22
22018;BME280;11173;51.050;7.108;2022-08-02T00:41:21;99814.97;;;14.86;69.54
22018;BME280;11173;51.050;7.108;2022-08-02T00:46:22;99817.78;;;14.86;68.92
22018;BME280;11173;51.050;7.108;2022-08-02T00:51:22;99799.06;;;14.83;69.36
22018;BME280;11173;51.050;7.108;2022-08-02T00:56:23;99802.38;;;14.78;69.45
22018;BME280;11173;51.050;7.108;2022-08-02T01:01:23;99794.06;;;14.75;69.56
22018;BME280;11173;51.050;7.108;2022-08-02T01:06:41;99798.22;;;14.70;70.55
22018;BME280;11173;51.050;7.108;2022-08-02T01:11:41;99802.22;;;14.69;70.36
22018;BME280;11173;51.050;7.108;2022-08-02T01:16:45;99809.41;;;14.70;70.47
22018;BME280;11173;51.050;7.108;2022-08-02T01:22:11;99804.94;;;14.72;69.40
22018;BME280;11173;51.050;7.108;2022-08-02T01:27:31;99800.44;;;14.75;65.90
22018;BME280;11173;51.050;7.108;2022-08-02T01:32:51;99794.84;;;14.75;67.95
22018;BME280;11173;51.050;7.108;2022-08-02T01:38:03;99786.56;;;14.71;70.83
22018;BME280;11173;51.050;7.108;2022-08-02T01:43:07;99785.06;;;14.67;67.84
22018;BME280;11173;51.050;7.108;2022-08-02T01:48:10;99782.25;;;14.67;67.88
22018;BME280;11173;51.050;7.108;2022-08-02T01:53:12;99785.97;;;14.64;66.83
22018;BME280;11173;51.050;7.108;2022-08-02T01:58:16;99788.00;;;14.63;65.02
22018;BME280;11173;51.050;7.108;2022-08-02T02:03:19;99796.50;;;14.60;65.77
22018;BME280;11173;51.050;7.108;2022-08-02T02:08:25;99787.75;;;14.58;67.55
22018;BME280;11173;51.050;7.108;2022-08-02T02:13:27;99777.41;;;14.55;68.82
22018;BME280;11173;51.050;7.108;2022-08-02T02:18:28;99768.22;;;14.54;69.13
22018;BME280;11173;51.050;7.108;2022-08-02T02:23:29;99774.28;;;14.52;69.24
22018;BME280;11173;51.050;7.108;2022-08-02T02:28:31;99767.53;;;14.50;68.75
22018;BME280;11173;51.050;7.108;2022-08-02T02:33:36;99769.44;;;14.40;69.68
22018;BME280;11173;51.050;7.108;2022-08-02T02:38:39;99766.47;;;14.31;69.90
22018;BME280;11173;51.050;7.108;2022-08-02T02:43:42;99759.59;;;14.19;71.03
22018;BME280;11173;51.050;7.108;2022-08-02T02:48:43;99762.28;;;14.10;71.00
22018;BME280;11173;51.050;7.108;2022-08-02T02:53:44;99757.63;;;14.03;70.87
22018;BME280;11173;51.050;7.108;2022-08-02T02:58:46;99766.25;;;13.96;71.60
22018;BME280;11173;51.050;7.108;2022-08-02T03:03:48;99758.03;;;13.89;71.43
22018;BME280;11173;51.050;7.108;2022-08-02T03:08:48;99759.00;;;13.82;72.25
22018;BME280;11173;51.050;7.108;2022-08-02T03:13:49;99749.88;;;13.78;72.09
22018;BME280;11173;51.050;7.108;2022-08-02T03:18:50;99753.56;;;13.75;71.76
22018;BME280;11173;51.050;7.108;2022-08-02T03:23:50;99752.09;;;13.70;72.88
22018;BME280;11173;51.050;7.108;2022-08-02T03:28:51;99754.88;;;13.70;72.72
22018;BME280;11173;51.050;7.108;2022-08-02T03:33:52;99751.75;;;13.68;72.15
22018;BME280;11173;51.050;7.108;2022-08-02T03:38:54;99744.22;;;13.65;73.03
22018;BME280;11173;51.050;7.108;2022-08-02T03:43:56;99746.66;;;13.63;72.96
22018;BME280;11173;51.050;7.108;2022-08-02T03:48:57;99743.50;;;13.61;73.22
22018;BME280;11173;51.050;7.108;2022-08-02T03:53:59;99750.78;;;13.59;72.81
22018;BME280;11173;51.050;7.108;2022-08-02T03:59:07;99742.72;;;13.61;72.88
22018;BME280;11173;51.050;7.108;2022-08-02T04:04:08;99742.03;;;13.57;73.31
22018;BME280;11173;51.050;7.108;2022-08-02T04:09:08;99740.47;;;13.56;73.21
22018;BME280;11173;51.050;7.108;2022-08-02T04:14:09;99752.81;;;13.58;73.43
22018;BME280;11173;51.050;7.108;2022-08-02T04:19:14;99752.25;;;13.63;73.74
22018;BME280;11173;51.050;7.108;2022-08-02T04:24:17;99767.31;;;13.69;72.46
22018;BME280;11173;51.050;7.108;2022-08-02T04:29:18;99756.81;;;13.73;73.68
22018;BME280;11173;51.050;7.108;2022-08-02T04:34:19;99762.22;;;13.81;73.38
22018;BME280;11173;51.050;7.108;2022-08-02T04:39:19;99766.97;;;13.84;73.81
22018;BME280;11173;51.050;7.108;2022-08-02T04:44:20;99767.22;;;13.89;73.02
22018;BME280;11173;51.050;7.108;2022-08-02T04:49:20;99763.44;;;13.96;73.79
22018;BME280;11173;51.050;7.108;2022-08-02T04:54:20;99767.97;;;14.06;73.65
22018;BME280;11173;51.050;7.108;2022-08-02T04:59:21;99758.28;;;14.24;73.97
22018;BME280;11173;51.050;7.108;2022-08-02T05:04:21;99754.91;;;14.58;72.78
22018;BME280;11173;51.050;7.108;2022-08-02T05:09:22;99760.66;;;14.93;71.75
22018;BME280;11173;51.050;7.108;2022-08-02T05:14:22;99768.53;;;15.24;70.41
22018;BME280;11173;51.050;7.108;2022-08-02T05:19:22;99768.38;;;15.53;70.15
22018;BME280;11173;51.050;7.108;2022-08-02T05:24:23;99769.09;;;15.92;69.11
22018;BME280;11173;51.050;7.108;2022-08-02T05:29:23;99779.47;;;16.39;68.18
22018;BME280;11173;51.050;7.108;2022-08-02T05:34:24;99766.03;;;16.87;67.04
22018;BME280;11173;51.050;7.108;2022-08-02T05:39:24;99761.53;;;17.40;65.14
22018;BME280;11173;51.050;7.108;2022-08-02T05:44:24;99776.03;;;17.88;63.54
22018;BME280;11173;51.050;7.108;2022-08-02T05:49:25;99772.59;;;18.30;63.41
22018;BME280;11173;51.050;7.108;2022-08-02T05:54:33;99765.94;;;18.79;63.43
22018;BME280;11173;51.050;7.108;2022-08-02T05:59:40;99773.91;;;19.23;62.50
22018;BME280;11173;51.050;7.108;2022-08-02T06:05:09;99787.94;;;19.75;63.51
22018;BME280;11173;51.050;7.108;2022-08-02T06:10:12;99776.31;;;20.36;61.90
22018;BME280;11173;51.050;7.108;2022-08-02T06:15:17;99774.00;;;20.94;62.61
22018;BME280;11173;51.050;7.108;2022-08-02T06:20:19;99783.97;;;21.40;61.37
22018;BME280;11173;51.050;7.108;2022-08-02T06:25:21;99780.72;;;21.82;60.92
22018;BME280;11173;51.050;7.108;2022-08-02T06:30:21;99779.84;;;22.17;60.25
22018;BME280;11173;51.050;7.108;2022-08-02T06:35:25;99770.94;;;22.51;59.74
22018;BME280;11173;51.050;7.108;2022-08-02T06:45:32;99770.50;;;22.90;58.54
22018;BME280;11173;51.050;7.108;2022-08-02T06:50:34;99768.78;;;22.98;57.75
22018;BME280;11173;51.050;7.108;2022-08-02T06:55:34;99775.25;;;22.98;57.27
22018;BME280;11173;51.050;7.108;2022-08-02T07:00:35;99777.91;;;22.81;56.26
22018;BME280;11173;51.050;7.108;2022-08-02T07:05:36;99775.59;;;22.54;56.55
22018;BME280;11173;51.050;7.108;2022-08-02T07:10:36;99785.41;;;22.27;56.39
22018;BME280;11173;51.050;7.108;2022-08-02T07:15:37;99783.75;;;21.99;56.02
22018;BME280;11173;51.050;7.108;2022-08-02T07:20:38;99777.63;;;21.80;56.11
22018;BME280;11173;51.050;7.108;2022-08-02T07:25:39;99780.97;;;21.64;56.17
22018;BME280;11173;51.050;7.108;2022-08-02T07:30:41;99777.50;;;21.54;56.98
22018;BME280;11173;51.050;7.108;2022-08-02T07:35:41;99769.69;;;21.49;56.79
22018;BME280;11173;51.050;7.108;2022-08-02T07:40:42;99776.31;;;21.46;57.03
22018;BME280;11173;51.050;7.108;2022-08-02T07:45:42;99770.66;;;21.46;56.68
22018;BME280;11173;51.050;7.108;2022-08-02T07:50:43;99781.34;;;21.51;56.85
22018;BME280;11173;51.050;7.108;2022-08-02T07:55:43;99772.19;;;21.62;57.04
22018;BME280;11173;51.050;7.108;2022-08-02T08:00:44;99780.09;;;21.73;56.94
22018;BME280;11173;51.050;7.108;2022-08-02T08:05:44;99773.00;;;21.83;56.56
22018;BME280;11173;51.050;7.108;2022-08-02T08:10:45;99774.69;;;21.95;55.88
22018;BME280;11173;51.050;7.108;2022-08-02T08:15:46;99770.16;;;22.03;55.59
22018;BME280;11173;51.050;7.108;2022-08-02T08:20:46;99765.59;;;22.12;55.18
22018;BME280;11173;51.050;7.108;2022-08-02T08:25:47;99760.25;;;22.19;54.80
22018;BME280;11173;51.050;7.108;2022-08-02T08:30:47;99773.03;;;22.30;54.80
22018;BME280;11173;51.050;7.108;2022-08-02T08:35:48;99759.47;;;22.39;54.75
22018;BME280;11173;51.050;7.108;2022-08-02T08:40:49;99754.69;;;22.51;54.13
22018;BME280;11173;51.050;7.108;2022-08-02T08:45:49;99752.50;;;22.67;54.25
22018;BME280;11173;51.050;7.108;2022-08-02T08:51:01;99750.03;;;22.80;54.10
22018;BME280;11173;51.050;7.108;2022-08-02T08:56:05;99753.53;;;22.95;53.89
22018;BME280;11173;51.050;7.108;2022-08-02T09:01:05;99750.81;;;23.12;53.92
22018;BME280;11173;51.050;7.108;2022-08-02T09:06:06;99741.63;;;23.29;53.93
22018;BME280;11173;51.050;7.108;2022-08-02T09:11:14;99741.44;;;23.43;53.80
22018;BME280;11173;51.050;7.108;2022-08-02T09:16:26;99738.13;;;23.51;53.28
22018;BME280;11173;51.050;7.108;2022-08-02T09:21:36;99735.63;;;23.58;52.95
22018;BME280;11173;51.050;7.108;2022-08-02T09:26:37;99727.34;;;23.60;52.82
22018;BME280;11173;51.050;7.108;2022-08-02T09:31:37;99725.53;;;23.63;52.29
22018;BME280;11173;51.050;7.108;2022-08-02T09:36:40;99725.03;;;23.65;52.92
22018;BME280;11173;51.050;7.108;2022-08-02T09:41:42;99732.53;;;23.68;52.85
22018;BME280;11173;51.050;7.108;2022-08-02T09:46:45;99719.13;;;23.74;52.27
22018;BME280;11173;51.050;7.108;2022-08-02T09:56:46;99731.38;;;23.97;51.96
22018;BME280;11173;51.050;7.108;2022-08-02T10:01:48;99720.78;;;24.09;51.58
22018;BME280;11173;51.050;7.108;2022-08-02T10:06:49;99725.75;;;24.25;50.00
22018;BME280;11173;51.050;7.108;2022-08-02T10:11:50;99718.81;;;24.49;52.37
22018;BME280;11173;51.050;7.108;2022-08-02T10:16:52;99710.53;;;24.79;51.05
22018;BME280;11173;51.050;7.108;2022-08-02T10:27:03;99698.25;;;25.52;50.60
22018;BME280;11173;51.050;7.108;2022-08-02T10:32:15;99691.47;;;26.08;51.01
22018;BME280;11173;51.050;7.108;2022-08-02T10:37:16;99688.31;;;26.53;50.02
22018;BME280;11173;51.050;7.108;2022-08-02T10:42:43;99691.38;;;26.91;50.21
22018;BME280;11173;51.050;7.108;2022-08-02T10:48:09;99685.88;;;27.17;49.59
22018;BME280;11173;51.050;7.108;2022-08-02T10:53:30;99680.56;;;27.33;48.19
22018;BME280;11173;51.050;7.108;2022-08-02T10:58:32;99674.22;;;27.40;46.85
22018;BME280;11173;51.050;7.108;2022-08-02T11:03:37;99672.59;;;27.45;47.11
22018;BME280;11173;51.050;7.108;2022-08-02T11:08:41;99670.97;;;27.49;45.53
22018;BME280;11173;51.050;7.108;2022-08-02T11:14:04;99671.44;;;27.53;46.02
22018;BME280;11173;51.050;7.108;2022-08-02T11:19:07;99665.81;;;27.48;43.53
22018;BME280;11173;51.050;7.108;2022-08-02T11:24:29;99671.72;;;27.31;43.74
22018;BME280;11173;51.050;7.108;2022-08-02T11:29:35;99667.13;;;27.22;43.64
22018;BME280;11173;51.050;7.108;2022-08-02T11:34:37;99663.00;;;27.17;44.89
22018;BME280;11173;51.050;7.108;2022-08-02T11:39:38;99652.31;;;27.24;43.21
22018;BME280;11173;51.050;7.108;2022-08-02T11:44:40;99659.22;;;27.34;42.30
22018;BME280;11173;51.050;7.108;2022-08-02T11:49:40;99648.09;;;27.49;41.00
22018;BME280;11173;51.050;7.108;2022-08-02T11:54:42;99657.00;;;27.65;41.53
22018;BME280;11173;51.050;7.108;2022-08-02T11:59:43;99656.41;;;27.72;40.73
22018;BME280;11173;51.050;7.108;2022-08-02T12:04:54;99652.28;;;27.67;41.70
22018;BME280;11173;51.050;7.108;2022-08-02T12:09:59;99647.34;;;27.68;41.51
22018;BME280;11173;51.050;7.108;2022-08-02T12:15:00;99639.16;;;27.77;41.98
22018;BME280;11173;51.050;7.108;2022-08-02T12:20:00;99641.41;;;28.04;43.24
22018;BME280;11173;51.050;7.108;2022-08-02T12:25:17;99648.13;;;28.39;42.74
22018;BME280;11173;51.050;7.108;2022-08-02T12:30:18;99642.81;;;28.62;41.01
22018;BME280;11173;51.050;7.108;2022-08-02T12:35:18;99658.16;;;28.78;39.69
22018;BME280;11173;51.050;7.108;2022-08-02T12:45:24;99649.34;;;28.89;39.63
22018;BME280;11173;51.050;7.108;2022-08-02T12:50:28;99639.84;;;28.81;38.75
22018;BME280;11173;51.050;7.108;2022-08-02T12:55:29;99638.44;;;28.74;38.76
22018;BME280;11173;51.050;7.108;2022-08-02T13:00:31;99633.34;;;28.80;39.66
22018;BME280;11173;51.050;7.108;2022-08-02T13:05:33;99635.22;;;28.91;38.84
22018;BME280;11173;51.050;7.108;2022-08-02T13:10:34;99629.28;;;28.89;37.45
22018;BME280;11173;51.050;7.108;2022-08-02T13:15:35;99628.16;;;28.79;37.39
22018;BME280;11173;51.050;7.108;2022-08-02T13:20:36;99620.88;;;28.64;38.24
22018;BME280;11173;51.050;7.108;2022-08-02T13:25:36;99618.69;;;28.70;39.26
22018;BME280;11173;51.050;7.108;2022-08-02T13:30:37;99609.88;;;28.95;38.76
22018;BME280;11173;51.050;7.108;2022-08-02T13:35:37;99610.66;;;29.22;38.18
22018;BME280;11173;51.050;7.108;2022-08-02T13:40:38;99602.13;;;29.43;38.77
22018;BME280;11173;51.050;7.108;2022-08-02T13:45:57;99597.47;;;29.53;38.13
22018;BME280;11173;51.050;7.108;2022-08-02T13:50:58;99598.50;;;29.56;38.60
22018;BME280;11173;51.050;7.108;2022-08-02T13:55:58;99596.94;;;29.55;37.99
22018;BME280;11173;51.050;7.108;2022-08-02T14:00:59;99592.97;;;29.58;37.93
22018;BME280;11173;51.050;7.108;2022-08-02T14:05:59;99581.78;;;29.54;38.14
22018;BME280;11173;51.050;7.108;2022-08-02T14:11:00;99587.00;;;29.43;38.47
22018;BME280;11173;51.050;7.108;2022-08-02T14:16:00;99585.16;;;29.32;37.57
22018;BME280;11173;51.050;7.108;2022-08-02T14:21:01;99589.47;;;29.25;37.46
22018;BME280;11173;51.050;7.108;2022-08-02T14:26:01;99570.84;;;29.19;37.76
22018;BME280;11173;51.050;7.108;2022-08-02T14:31:04;99580.34;;;29.13;37.71
22018;BME280;11173;51.050;7.108;2022-08-02T14:36:05;99558.50;;;29.10;36.09
22018;BME280;11173;51.050;7.108;2022-08-02T14:41:05;99575.88;;;28.99;35.10
22018;BME280;11173;51.050;7.108;2022-08-02T14:46:06;99572.41;;;28.80;35.92
22018;BME280;11173;51.050;7.108;2022-08-02T14:51:06;99563.13;;;28.73;36.47
22018;BME280;11173;51.050;7.108;2022-08-02T14:56:06;99558.28;;;28.68;35.82
22018;BME280;11173;51.050;7.108;2022-08-02T15:01:07;99551.97;;;28.56;35.88
22018;BME280;11173;51.050;7.108;2022-08-02T15:06:07;99559.81;;;28.56;35.93
22018;BME280;11173;51.050;7.108;2022-08-02T15:11:08;99539.75;;;28.56;35.84
22018;BME280;11173;51.050;7.108;2022-08-02T15:16:08;99545.59;;;28.50;36.11
22018;BME280;11173;51.050;7.108;2022-08-02T15:21:09;99534.88;;;28.51;36.32
22018;BME280;11173;51.050;7.108;2022-08-02T15:26:10;99537.09;;;28.58;36.88
22018;BME280;11173;51.050;7.108;2022-08-02T15:31:10;99530.25;;;28.61;36.17
22018;BME280;11173;51.050;7.108;2022-08-02T15:36:10;99523.53;;;28.59;35.72
22018;BME280;11173;51.050;7.108;2022-08-02T15:41:11;99523.53;;;28.59;36.63
22018;BME280;11173;51.050;7.108;2022-08-02T15:46:11;99525.41;;;28.69;36.16
22018;BME280;11173;51.050;7.108;2022-08-02T15:51:11;99531.81;;;28.75;36.00
22018;BME280;11173;51.050;7.108;2022-08-02T15:56:12;99522.75;;;28.85;36.62
22018;BME280;11173;51.050;7.108;2022-08-02T16:01:12;99520.75;;;28.93;35.45
22018;BME280;11173;51.050;7.108;2022-08-02T16:06:13;99524.06;;;28.97;34.91
22018;BME280;11173;51.050;7.108;2022-08-02T16:11:14;99515.81;;;28.93;34.99
22018;BME280;11173;51.050;7.108;2022-08-02T16:16:16;99507.22;;;28.93;34.51
22018;BME280;11173;51.050;7.108;2022-08-02T16:21:17;99506.09;;;28.96;34.65
22018;BME280;11173;51.050;7.108;2022-08-02T16:26:18;99505.53;;;28.98;34.57
22018;BME280;11173;51.050;7.108;2022-08-02T16:31:19;99505.13;;;28.94;34.75
22018;BME280;11173;51.050;7.108;2022-08-02T16:36:19;99505.13;;;28.94;35.24
22018;BME280;11173;51.050;7.108;2022-08-02T16:41:20;99499.59;;;28.96;35.00
22018;BME280;11173;51.050;7.108;2022-08-02T16:46:21;99498.84;;;28.95;35.46
22018;BME280;11173;51.050;7.108;2022-08-02T16:51:21;99500.47;;;28.91;35.27
22018;BME280;11173;51.050;7.108;2022-08-02T16:56:21;99491.66;;;28.89;35.00
22018;BME280;11173;51.050;7.108;2022-08-02T17:01:22;99485.50;;;28.85;34.53
22018;BME280;11173;51.050;7.108;2022-08-02T17:06:23;99489.59;;;28.76;35.30
22018;BME280;11173;51.050;7.108;2022-08-02T17:11:23;99487.59;;;28.71;34.99
22018;BME280;11173;51.050;7.108;2022-08-02T17:16:24;99478.78;;;28.69;35.20
22018;BME280;11173;51.050;7.108;2022-08-02T17:21:25;99488.56;;;28.87;35.44
22018;BME280;11173;51.050;7.108;2022-08-02T17:26:28;99485.91;;;29.15;34.79
22018;BME280;11173;51.050;7.108;2022-08-02T17:31:28;99486.22;;;29.46;34.74
22018;BME280;11173;51.050;7.108;2022-08-02T17:36:29;99485.03;;;29.76;35.37
22018;BME280;11173;51.050;7.108;2022-08-02T17:41:29;99475.56;;;30.10;35.08
22018;BME280;11173;51.050;7.108;2022-08-02T17:46:30;99473.72;;;30.49;34.41
22018;BME280;11173;51.050;7.108;2022-08-02T17:51:30;99472.56;;;30.81;34.01
22018;BME280;11173;51.050;7.108;2022-08-02T17:56:30;99469.44;;;31.07;33.86
22018;BME280;11173;51.050;7.108;2022-08-02T18:01:31;99469.69;;;31.25;33.66
22018;BME280;11173;51.050;7.108;2022-08-02T18:06:31;99476.06;;;31.46;33.85
22018;BME280;11173;51.050;7.108;2022-08-02T18:11:31;99473.22;;;31.62;33.56
22018;BME280;11173;51.050;7.108;2022-08-02T18:16:32;99468.06;;;31.68;33.28
22018;BME280;11173;51.050;7.108;2022-08-02T18:21:32;99472.06;;;31.65;32.86
22018;BME280;11173;51.050;7.108;2022-08-02T18:26:33;99475.72;;;31.58;32.51
22018;BME280;11173;51.050;7.108;2022-08-02T18:31:35;99473.56;;;31.43;32.71
22018;BME280;11173;51.050;7.108;2022-08-02T18:36:36;99472.16;;;31.21;32.75
22018;BME280;11173;51.050;7.108;2022-08-02T18:41:36;99468.81;;;30.93;32.34
22018;BME280;11173;51.050;7.108;2022-08-02T18:46:36;99484.81;;;30.45;32.15
22018;BME280;11173;51.050;7.108;2022-08-02T18:51:39;99480.38;;;29.73;32.16
22018;BME280;11173;51.050;7.108;2022-08-02T18:56:39;99476.44;;;28.94;32.83
22018;BME280;11173;51.050;7.108;2022-08-02T19:01:40;99480.19;;;28.22;33.34
22018;BME280;11173;51.050;7.108;2022-08-02T19:06:40;99484.63;;;27.58;33.91
22018;BME280;11173;51.050;7.108;2022-08-02T19:11:41;99478.09;;;27.07;34.34
22018;BME280;11173;51.050;7.108;2022-08-02T19:16:41;99480.19;;;26.63;34.93
22018;BME280;11173;51.050;7.108;2022-08-02T19:21:42;99490.50;;;26.22;35.63
22018;BME280;11173;51.050;7.108;2022-08-02T19:26:42;99489.72;;;25.91;35.71
22018;BME280;11173;51.050;7.108;2022-08-02T19:31:44;99493.56;;;25.64;36.43
22018;BME280;11173;51.050;7.108;2022-08-02T19:36:45;99498.91;;;25.37;36.46
22018;BME280;11173;51.050;7.108;2022-08-02T19:41:45;99499.06;;;25.14;36.98
22018;BME280;11173;51.050;7.108;2022-08-02T19:46:46;99505.41;;;24.90;36.79
22018;BME280;11173;51.050;7.108;2022-08-02T19:51:46;99506.25;;;24.68;36.90
22018;BME280;11173;51.050;7.108;2022-08-02T19:56:48;99507.09;;;24.46;37.56
22018;BME280;11173;51.050;7.108;2022-08-02T20:01:49;99507.38;;;24.26;37.84
22018;BME280;11173;51.050;7.108;2022-08-02T20:06:50;99515.66;;;24.07;37.59
22018;BME280;11173;51.050;7.108;2022-08-02T20:11:50;99514.63;;;23.87;38.12
22018;BME280;11173;51.050;7.108;2022-08-02T20:16:51;99520.03;;;23.74;38.15
22018;BME280;11173;51.050;7.108;2022-08-02T20:21:52;99517.72;;;23.61;38.70
22018;BME280;11173;51.050;7.108;2022-08-02T20:26:53;99521.28;;;23.50;38.90
22018;BME280;11173;51.050;7.108;2022-08-02T20:31:54;99526.44;;;23.40;39.04
22018;BME280;11173;51.050;7.108;2022-08-02T20:36:54;99520.22;;;23.31;39.03
22018;BME280;11173;51.050;7.108;2022-08-02T20:41:54;99523.53;;;23.23;38.80
22018;BME280;11173;51.050;7.108;2022-08-02T20:46:55;99523.25;;;23.16;39.32
22018;BME280;11173;51.050;7.108;2022-08-02T20:51:55;99523.00;;;23.08;39.55
22018;BME280;11173;51.050;7.108;2022-08-02T20:56:56;99523.75;;;23.03;39.29
22018;BME280;11173;51.050;7.108;2022-08-02T21:01:56;99528.63;;;22.97;39.85
22018;BME280;11173;51.050;7.108;2022-08-02T21:06:56;99522.63;;;22.89;39.58
22018;BME280;11173;51.050;7.108;2022-08-02T21:11:58;99528.50;;;22.80;40.65
22018;BME280;11173;51.050;7.108;2022-08-02T21:16:58;99517.09;;;22.63;40.32
22018;BME280;11173;51.050;7.108;2022-08-02T21:22:00;99514.94;;;22.47;41.00
22018;BME280;11173;51.050;7.108;2022-08-02T21:27:00;99518.13;;;22.22;42.13
22018;BME280;11173;51.050;7.108;2022-08-02T21:32:01;99514.53;;;21.96;43.67
22018;BME280;11173;51.050;7.108;2022-08-02T21:37:01;99526.31;;;21.83;44.57
22018;BME280;11173;51.050;7.108;2022-08-02T21:42:02;99526.97;;;21.72;44.95
22018;BME280;11173;51.050;7.108;2022-08-02T21:47:02;99533.31;;;21.61;45.10
22018;BME280;11173;51.050;7.108;2022-08-02T21:52:03;99526.03;;;21.55;45.40
22018;BME280;11173;51.050;7.108;2022-08-02T21:57:03;99527.47;;;21.44;45.19
22018;BME280;11173;51.050;7.108;2022-08-02T22:02:03;99531.22;;;21.36;46.10
22018;BME280;11173;51.050;7.108;2022-08-02T22:07:04;99534.50;;;21.29;46.22
22018;BME280;11173;51.050;7.108;2022-08-02T22:12:05;99536.50;;;21.22;46.21
22018;BME280;11173;51.050;7.108;2022-08-02T22:17:06;99538.72;;;21.13;46.67
22018;BME280;11173;51.050;7.108;2022-08-02T22:22:07;99535.81;;;21.07;46.74
22018;BME280;11173;51.050;7.108;2022-08-02T22:27:07;99542.38;;;20.98;47.71
22018;BME280;11173;51.050;7.108;2022-08-02T22:32:08;99535.09;;;20.92;48.83
22018;BME280;11173;51.050;7.108;2022-08-02T22:37:08;99544.78;;;20.85;48.78
22018;BME280;11173;51.050;7.108;2022-08-02T22:42:08;99545.97;;;20.78;49.38
22018;BME280;11173;51.050;7.108;2022-08-02T22:47:09;99549.22;;;20.71;49.22
22018;BME280;11173;51.050;7.108;2022-08-02T22:52:09;99548.56;;;20.61;49.67
22018;BME280;11173;51.050;7.108;2022-08-02T22:57:10;99545.66;;;20.56;49.71
22018;BME280;11173;51.050;7.108;2022-08-02T23:02:10;99549.19;;;20.51;50.62
22018;BME280;11173;51.050;7.108;2022-08-02T23:07:10;99544.22;;;20.45;50.78
22018;BME280;11173;51.050;7.108;2022-08-02T23:12:11;99544.91;;;20.40;51.66
22018;BME280;11173;51.050;7.108;2022-08-02T23:17:11;99546.09;;;20.34;51.38
22018;BME280;11173;51.050;7.108;2022-08-02T23:22:30;99537.44;;;20.22;51.71
22018;BME280;11173;51.050;7.108;2022-08-02T23:27:31;99541.38;;;20.10;52.24
22018;BME280;11173;51.050;7.108;2022-08-02T23:32:32;99545.06;;;20.01;52.85
22018;BME280;11173;51.050;7.108;2022-08-02T23:37:33;99545.16;;;19.92;52.94
22018;BME280;11173;51.050;7.108;2022-08-02T23:42:33;99544.28;;;19.86;53.29
22018;BME280;11173;51.050;7.108;2022-08-02T23:47:34;99545.94;;;19.78;52.88
22018;BME280;11173;51.050;7.108;2022-08-02T23:52:34;99537.88;;;19.71;52.72
22018;BME280;11173;51.050;7.108;2022-08-02T23:57:34;99534.94;;;19.65;52.79
